Time;durP1;ratioP1;P1;durP2;ratioP2;P2;SDS_P1;SDS_P2;PMS_P1;PMS_P2;Temp;Humidity;BMP_temperature;BMP_pressure;BME280_temperature;BME280_humidity;BME280_pressure;Samples;Min_cycle;Max_cycle;Signal;HPM_P1;HPM_P2
2020/12/29 00:00:40;;;;;;;11.50;6.00;;;;;;;;;;5019913;28;20252;-77
2020/12/29 00:03:07;;;;;;;11.83;5.23;;;;;;;;;;5021386;28;20351;-78
2020/12/29 00:05:36;;;;;;;10.77;4.97;;;;;;;;;;5008712;28;20253;-78
2020/12/29 00:08:03;;;;;;;8.30;4.77;;;;;;;;;;5013513;28;20271;-78
2020/12/29 00:10:31;;;;;;;8.03;4.47;;;;;;;;;;5033657;28;20271;-78
2020/12/29 00:12:57;;;;;;;10.33;4.93;;;;;;;;;;5013100;28;20279;-77
2020/12/29 00:15:23;;;;;;;8.00;4.70;;;;;;;;;;5005156;28;20646;-77
2020/12/29 00:17:49;;;;;;;7.77;3.70;;;;;;;;;;5024163;28;20407;-77
2020/12/29 00:20:16;;;;;;;9.00;3.83;;;;;;;;;;5012831;28;20893;-77
2020/12/29 00:22:42;;;;;;;6.83;3.10;;;;;;;;;;5032568;28;20292;-78
2020/12/29 00:25:08;;;;;;;8.90;4.20;;;;;;;;;;5020719;28;20635;-78
2020/12/29 00:27:34;;;;;;;5.97;3.10;;;;;;;;;;5013398;28;20779;-77
2020/12/29 00:30:00;;;;;;;5.70;2.97;;;;;;;;;;5023178;28;20269;-77
2020/12/29 00:32:27;;;;;;;6.90;3.20;;;;;;;;;;5006801;28;20623;-78
2020/12/29 00:34:53;;;;;;;5.90;2.60;;;;;;;;;;5006880;28;20265;-78
2020/12/29 00:37:19;;;;;;;4.90;2.63;;;;;;;;;;5013031;28;20260;-78
2020/12/29 00:39:45;;;;;;;6.47;2.40;;;;;;;;;;5020766;28;20784;-77
2020/12/29 00:42:11;;;;;;;5.83;3.03;;;;;;;;;;5014838;28;20288;-77
2020/12/29 00:44:38;;;;;;;7.30;3.60;;;;;;;;;;5037528;28;20295;-77
2020/12/29 00:47:06;;;;;;;6.60;3.77;;;;;;;;;;5026975;28;20354;-78
2020/12/29 00:49:36;;;;;;;6.27;3.30;;;;;;;;;;5026820;28;20272;-78
2020/12/29 00:52:03;;;;;;;7.47;4.40;;;;;;;;;;5022448;28;20283;-78
2020/12/29 00:54:29;;;;;;;7.33;3.70;;;;;;;;;;5027170;28;21018;-78
2020/12/29 00:56:55;;;;;;;8.77;4.47;;;;;;;;;;5027234;28;20360;-79
2020/12/29 00:59:28;;;;;;;7.73;4.57;;;;;;;;;;5003897;28;20793;-77
2020/12/29 01:01:59;;;;;;;8.27;4.47;;;;;;;;;;5015586;28;20307;-78
2020/12/29 01:04:25;;;;;;;7.50;4.23;;;;;;;;;;5012726;28;20277;-78
2020/12/29 01:06:51;;;;;;;6.90;4.00;;;;;;;;;;5027277;28;20267;-79
2020/12/29 01:09:24;;;;;;;7.43;4.47;;;;;;;;;;5011446;28;20312;-77
2020/12/29 01:11:51;;;;;;;8.02;4.68;;;;;;;;;;5013440;28;20272;-78
2020/12/29 01:14:17;;;;;;;9.90;4.20;;;;;;;;;;5030485;28;20061;-79
2020/12/29 01:16:45;;;;;;;8.80;4.10;;;;;;;;;;5019552;28;20760;-78
2020/12/29 01:19:11;;;;;;;8.70;4.33;;;;;;;;;;5029020;28;20294;-78
2020/12/29 01:21:37;;;;;;;8.90;4.23;;;;;;;;;;5016837;28;20351;-78
2020/12/29 01:24:03;;;;;;;7.37;3.50;;;;;;;;;;5014122;28;20398;-78
2020/12/29 01:26:30;;;;;;;6.70;3.60;;;;;;;;;;5023836;28;20261;-78
2020/12/29 01:28:56;;;;;;;5.13;3.13;;;;;;;;;;5019726;28;20265;-78
2020/12/29 01:31:29;;;;;;;6.13;3.10;;;;;;;;;;5011111;28;20280;-78
2020/12/29 01:33:57;;;;;;;5.78;3.00;;;;;;;;;;5014455;28;20361;-79
2020/12/29 01:36:23;;;;;;;4.83;2.50;;;;;;;;;;5020709;28;20061;-78
2020/12/29 01:38:49;;;;;;;4.97;2.23;;;;;;;;;;5016575;28;20284;-78
2020/12/29 01:41:16;;;;;;;4.50;2.40;;;;;;;;;;5010913;28;20280;-78
2020/12/29 01:43:43;;;;;;;5.27;2.37;;;;;;;;;;5011375;28;20265;-79
2020/12/29 01:46:09;;;;;;;4.47;2.10;;;;;;;;;;5021508;28;20256;-77
2020/12/29 01:48:35;;;;;;;2.80;1.73;;;;;;;;;;5015041;28;20278;-77
2020/12/29 01:51:02;;;;;;;2.33;1.17;;;;;;;;;;5017547;28;20805;-78
2020/12/29 01:53:28;;;;;;;3.00;1.37;;;;;;;;;;5009674;28;20608;-78
2020/12/29 01:55:54;;;;;;;2.47;1.07;;;;;;;;;;5023427;28;20272;-77
2020/12/29 01:58:21;;;;;;;3.03;1.40;;;;;;;;;;5015184;28;20289;-78
2020/12/29 02:00:48;;;;;;;1.90;1.03;;;;;;;;;;5002155;28;20339;-78
2020/12/29 02:03:17;;;;;;;2.17;0.90;;;;;;;;;;5003439;28;20297;-77
2020/12/29 02:05:47;;;;;;;2.27;1.00;;;;;;;;;;4988400;28;20262;-78
2020/12/29 02:08:19;;;;;;;4.60;1.00;;;;;;;;;;4989036;28;20751;-78
2020/12/29 02:10:45;;;;;;;2.90;1.17;;;;;;;;;;4991977;28;20920;-79
2020/12/29 02:13:11;;;;;;;2.30;1.10;;;;;;;;;;5008535;28;20772;-78
2020/12/29 02:15:37;;;;;;;3.47;1.00;;;;;;;;;;5008634;28;20304;-77
2020/12/29 02:18:03;;;;;;;3.57;1.50;;;;;;;;;;5007231;28;20285;-78
2020/12/29 02:20:30;;;;;;;1.30;0.80;;;;;;;;;;5006303;28;20272;-78
2020/12/29 02:22:56;;;;;;;2.73;0.80;;;;;;;;;;5008770;28;20261;-78
2020/12/29 02:25:22;;;;;;;3.00;1.10;;;;;;;;;;5007063;28;20277;-78
2020/12/29 02:27:49;;;;;;;0.83;0.60;;;;;;;;;;5006726;28;20283;-77
2020/12/29 02:30:16;;;;;;;2.63;1.00;;;;;;;;;;5007198;28;20268;-78
2020/12/29 02:32:42;;;;;;;1.17;0.73;;;;;;;;;;5026219;28;20647;-77
2020/12/29 02:35:09;;;;;;;2.47;0.87;;;;;;;;;;5026470;28;20292;-78
2020/12/29 02:37:35;;;;;;;1.60;0.80;;;;;;;;;;5020962;28;21110;-77
2020/12/29 02:40:01;;;;;;;2.27;1.00;;;;;;;;;;5006131;28;20648;-78
2020/12/29 02:42:27;;;;;;;1.37;0.80;;;;;;;;;;5007905;28;20293;-77
2020/12/29 02:44:53;;;;;;;1.03;0.50;;;;;;;;;;5007425;28;20269;-77
2020/12/29 02:47:19;;;;;;;1.17;0.60;;;;;;;;;;4991082;28;20363;-77
2020/12/29 02:49:45;;;;;;;2.53;0.90;;;;;;;;;;4995470;28;20836;-78
2020/12/29 02:52:11;;;;;;;1.97;0.90;;;;;;;;;;5006237;28;20334;-78
2020/12/29 02:54:38;;;;;;;1.03;0.67;;;;;;;;;;5000739;28;20276;-78
2020/12/29 02:57:04;;;;;;;1.20;0.63;;;;;;;;;;5002386;28;20371;-78
2020/12/29 02:59:30;;;;;;;0.97;0.63;;;;;;;;;;4998596;28;20324;-77
2020/12/29 03:01:57;;;;;;;0.97;0.57;;;;;;;;;;5001334;28;20366;-78
2020/12/29 03:04:23;;;;;;;0.90;0.60;;;;;;;;;;4997746;28;20363;-78
2020/12/29 03:06:49;;;;;;;0.97;0.50;;;;;;;;;;5006086;28;20356;-77
2020/12/29 03:09:15;;;;;;;2.90;0.50;;;;;;;;;;4988974;28;20281;-77
2020/12/29 03:11:42;;;;;;;1.17;0.50;;;;;;;;;;4989966;28;20281;-77
2020/12/29 03:14:08;;;;;;;0.50;0.30;;;;;;;;;;4989935;28;20784;-76
2020/12/29 03:16:35;;;;;;;0.70;0.40;;;;;;;;;;5000815;28;20285;-77
2020/12/29 03:19:01;;;;;;;2.30;0.50;;;;;;;;;;4997328;28;20761;-77
2020/12/29 03:21:28;;;;;;;1.07;0.33;;;;;;;;;;4997615;28;20303;-77
2020/12/29 03:23:55;;;;;;;1.07;0.27;;;;;;;;;;5026389;28;20283;-77
2020/12/29 03:26:21;;;;;;;0.67;0.20;;;;;;;;;;5007432;28;20265;-77
2020/12/29 03:28:49;;;;;;;1.07;0.40;;;;;;;;;;5006775;28;20281;-77
2020/12/29 03:31:15;;;;;;;2.73;1.20;;;;;;;;;;5000187;28;21121;-77
2020/12/29 03:33:42;;;;;;;3.13;0.50;;;;;;;;;;4988272;28;20324;-78
2020/12/29 03:36:09;;;;;;;0.87;0.40;;;;;;;;;;4994037;28;20262;-78
2020/12/29 03:38:35;;;;;;;1.07;0.40;;;;;;;;;;5003237;28;20288;-78
2020/12/29 03:41:01;;;;;;;2.50;0.30;;;;;;;;;;5017746;28;20290;-77
2020/12/29 03:43:29;;;;;;;1.07;0.30;;;;;;;;;;5027677;28;20268;-77
2020/12/29 03:45:55;;;;;;;1.50;0.30;;;;;;;;;;5010800;28;20288;-77
2020/12/29 03:48:22;;;;;;;1.93;0.20;;;;;;;;;;5007189;28;20334;-77
2020/12/29 03:50:48;;;;;;;0.83;0.20;;;;;;;;;;5041105;28;20778;-77
2020/12/29 03:53:15;;;;;;;0.57;0.10;;;;;;;;;;4994047;28;20295;-77
2020/12/29 03:55:41;;;;;;;0.17;0.17;;;;;;;;;;4989681;28;20268;-77
2020/12/29 03:58:07;;;;;;;0.87;0.37;;;;;;;;;;5001151;28;20368;-77
2020/12/29 04:00:34;;;;;;;0.67;0.23;;;;;;;;;;5000644;28;20997;-78
2020/12/29 04:03:00;;;;;;;0.57;0.47;;;;;;;;;;5000970;28;20280;-78
2020/12/29 04:05:26;;;;;;;0.97;0.30;;;;;;;;;;4997943;28;20336;-77
2020/12/29 04:07:53;;;;;;;1.23;0.30;;;;;;;;;;4997517;28;20681;-77
2020/12/29 04:10:19;;;;;;;1.03;0.60;;;;;;;;;;5004970;28;20269;-76
2020/12/29 04:12:45;;;;;;;1.20;0.60;;;;;;;;;;5034145;28;20299;-77
2020/12/29 04:15:11;;;;;;;1.37;0.30;;;;;;;;;;5001863;28;20278;-77
2020/12/29 04:17:38;;;;;;;1.20;0.47;;;;;;;;;;4986423;28;20360;-78
2020/12/29 04:20:05;;;;;;;1.60;0.30;;;;;;;;;;4999175;28;20354;-77
2020/12/29 04:22:32;;;;;;;1.40;0.37;;;;;;;;;;4986774;28;20633;-77
2020/12/29 04:24:59;;;;;;;3.07;0.63;;;;;;;;;;5003860;28;20292;-77
2020/12/29 04:27:25;;;;;;;1.57;0.40;;;;;;;;;;5004228;28;20264;-78
2020/12/29 04:29:51;;;;;;;2.10;0.40;;;;;;;;;;5001816;28;20376;-77
2020/12/29 04:32:18;;;;;;;1.43;0.43;;;;;;;;;;5005267;28;20272;-77
2020/12/29 04:34:47;;;;;;;0.60;0.30;;;;;;;;;;5006356;28;20261;-75
2020/12/29 04:37:16;;;;;;;0.67;0.30;;;;;;;;;;5037207;28;20265;-77
2020/12/29 04:39:43;;;;;;;0.63;0.30;;;;;;;;;;5006043;28;20281;-77
2020/12/29 04:42:13;;;;;;;1.03;0.50;;;;;;;;;;5005930;28;20275;-77
2020/12/29 04:44:41;;;;;;;0.73;0.37;;;;;;;;;;5037965;28;20894;-77
2020/12/29 04:47:07;;;;;;;2.23;0.40;;;;;;;;;;5005299;28;20273;-77
2020/12/29 04:49:34;;;;;;;0.60;0.30;;;;;;;;;;5008456;28;20280;-76
2020/12/29 04:52:02;;;;;;;2.00;0.60;;;;;;;;;;5008482;28;20265;-77
2020/12/29 04:54:31;;;;;;;1.93;0.60;;;;;;;;;;5007987;28;20291;-77
2020/12/29 04:56:57;;;;;;;0.77;0.30;;;;;;;;;;5007762;28;20379;-77
2020/12/29 04:59:23;;;;;;;0.97;0.30;;;;;;;;;;5007899;28;20293;-77
2020/12/29 05:01:50;;;;;;;2.77;0.30;;;;;;;;;;5006722;28;20684;-77
2020/12/29 05:04:16;;;;;;;0.93;0.37;;;;;;;;;;5007498;28;20759;-77
2020/12/29 05:06:43;;;;;;;1.30;0.40;;;;;;;;;;5006777;28;20261;-77
2020/12/29 05:09:09;;;;;;;2.40;0.30;;;;;;;;;;5004368;28;20304;-77
2020/12/29 05:11:36;;;;;;;1.70;0.47;;;;;;;;;;5008525;28;20301;-77
2020/12/29 05:14:04;;;;;;;0.77;0.30;;;;;;;;;;4992296;28;20265;-77
2020/12/29 05:16:30;;;;;;;1.70;1.27;;;;;;;;;;5003524;28;20280;-77
2020/12/29 05:18:59;;;;;;;2.00;0.70;;;;;;;;;;5009684;28;20292;-77
2020/12/29 05:21:26;;;;;;;1.77;0.70;;;;;;;;;;5006441;28;20331;-77
2020/12/29 05:23:52;;;;;;;1.57;0.77;;;;;;;;;;5008874;28;20253;-77
2020/12/29 05:26:19;;;;;;;2.80;0.93;;;;;;;;;;5007695;28;20862;-77
2020/12/29 05:28:46;;;;;;;1.13;0.53;;;;;;;;;;5007130;28;20284;-77
2020/12/29 05:31:13;;;;;;;2.50;0.60;;;;;;;;;;5007991;28;20335;-76
2020/12/29 05:33:40;;;;;;;2.83;0.40;;;;;;;;;;5008354;28;20783;-75
2020/12/29 05:36:06;;;;;;;1.70;0.40;;;;;;;;;;5008654;28;20261;-77
2020/12/29 05:38:32;;;;;;;1.37;0.40;;;;;;;;;;4988887;28;20709;-77
2020/12/29 05:40:59;;;;;;;2.97;0.70;;;;;;;;;;4991353;28;20751;-77
2020/12/29 05:43:35;;;;;;;0.77;0.40;;;;;;;;;;5040833;28;20360;-77
2020/12/29 05:46:06;;;;;;;3.07;0.67;;;;;;;;;;5040075;28;20683;-77
2020/12/29 05:48:32;;;;;;;1.70;0.33;;;;;;;;;;4994906;28;20274;-77
2020/12/29 05:51:01;;;;;;;0.87;0.37;;;;;;;;;;5008972;28;20744;-77
2020/12/29 05:53:27;;;;;;;1.17;0.40;;;;;;;;;;4997683;28;20803;-78
2020/12/29 05:55:53;;;;;;;5.50;0.77;;;;;;;;;;4993485;28;20767;-76
2020/12/29 05:58:20;;;;;;;7.03;1.30;;;;;;;;;;5000257;28;20304;-76
2020/12/29 06:00:46;;;;;;;1.73;0.70;;;;;;;;;;4998701;28;20289;-77
2020/12/29 06:03:12;;;;;;;2.90;0.70;;;;;;;;;;4994646;28;20330;-77
2020/12/29 06:05:40;;;;;;;2.77;0.70;;;;;;;;;;5040427;28;20272;-76
2020/12/29 06:08:07;;;;;;;1.17;0.50;;;;;;;;;;5008182;28;20299;-77
2020/12/29 06:10:34;;;;;;;2.27;0.47;;;;;;;;;;5033439;28;20491;-76
2020/12/29 06:13:01;;;;;;;1.90;0.57;;;;;;;;;;5008379;28;20308;-76
2020/12/29 06:15:29;;;;;;;1.03;0.53;;;;;;;;;;5006812;28;20299;-77
2020/12/29 06:18:02;;;;;;;0.67;0.30;;;;;;;;;;5006122;28;20289;-77
2020/12/29 06:21:07;;;;;;;0.82;0.30;;;;;;;;;;5040254;28;20268;-77
2020/12/29 06:23:39;;;;;;;3.07;0.60;;;;;;;;;;4969593;28;20034;-77
2020/12/29 06:26:06;;;;;;;3.03;0.77;;;;;;;;;;4985702;28;20265;-76
2020/12/29 06:28:37;;;;;;;2.50;0.50;;;;;;;;;;5000418;28;20632;-77
2020/12/29 06:31:06;;;;;;;2.90;0.70;;;;;;;;;;5008525;28;20284;-77
2020/12/29 06:33:32;;;;;;;3.13;0.63;;;;;;;;;;5007348;28;20265;-78
2020/12/29 06:36:00;;;;;;;2.27;0.70;;;;;;;;;;5025291;28;20363;-77
2020/12/29 06:38:29;;;;;;;6.37;1.67;;;;;;;;;;5028150;28;20323;-77
2020/12/29 06:40:55;;;;;;;3.93;1.17;;;;;;;;;;5011082;28;20372;-78
2020/12/29 06:43:21;;;;;;;2.77;0.70;;;;;;;;;;5006760;28;20269;-76
2020/12/29 06:45:47;;;;;;;3.03;0.30;;;;;;;;;;5006767;28;20805;-77
2020/12/29 06:48:16;;;;;;;1.53;0.60;;;;;;;;;;4995690;28;20281;-77
2020/12/29 06:50:43;;;;;;;3.50;0.83;;;;;;;;;;5005653;28;20276;-77
2020/12/29 06:53:09;;;;;;;4.50;0.70;;;;;;;;;;5008147;28;20363;-77
2020/12/29 06:55:37;;;;;;;2.40;0.83;;;;;;;;;;5008047;28;20787;-77
2020/12/29 06:58:04;;;;;;;2.80;0.60;;;;;;;;;;5003660;28;21028;-77
2020/12/29 07:00:30;;;;;;;2.13;0.57;;;;;;;;;;5005771;28;20268;-77
2020/12/29 07:02:56;;;;;;;2.97;0.87;;;;;;;;;;5004813;28;20261;-75
2020/12/29 07:05:26;;;;;;;2.80;1.47;;;;;;;;;;4993665;28;20269;-77
2020/12/29 07:08:06;;;;;;;4.30;1.30;;;;;;;;;;5006537;28;20269;-76
2020/12/29 07:10:36;;;;;;;3.27;0.97;;;;;;;;;;5008121;28;20275;-77
2020/12/29 07:13:07;;;;;;;3.53;0.60;;;;;;;;;;5005642;28;20625;-77
2020/12/29 07:15:44;;;;;;;3.03;0.70;;;;;;;;;;5006895;28;20265;-76
2020/12/29 07:18:10;;;;;;;6.83;1.00;;;;;;;;;;4990547;28;20414;-77
2020/12/29 07:20:36;;;;;;;2.60;0.80;;;;;;;;;;5000819;28;20273;-76
2020/12/29 07:23:07;;;;;;;4.27;0.90;;;;;;;;;;5039530;28;20363;-77
2020/12/29 07:25:33;;;;;;;2.03;0.80;;;;;;;;;;5007907;28;20376;-75
2020/12/29 07:28:06;;;;;;;1.80;0.47;;;;;;;;;;5007550;28;20265;-76
2020/12/29 07:30:34;;;;;;;1.48;0.60;;;;;;;;;;5007958;28;20265;-76
2020/12/29 07:33:01;;;;;;;2.93;0.60;;;;;;;;;;5010270;28;20022;-77
2020/12/29 07:35:28;;;;;;;2.27;0.70;;;;;;;;;;5007682;28;20343;-76
2020/12/29 07:37:56;;;;;;;2.90;1.20;;;;;;;;;;5012698;28;20311;-76
2020/12/29 07:40:23;;;;;;;3.37;0.80;;;;;;;;;;5025380;28;20288;-77
2020/12/29 07:42:49;;;;;;;3.87;1.07;;;;;;;;;;5010230;28;20268;-77
2020/12/29 07:45:15;;;;;;;3.20;1.03;;;;;;;;;;5006839;28;20316;-77
2020/12/29 07:47:41;;;;;;;5.73;1.80;;;;;;;;;;5005527;28;20296;-77
2020/12/29 07:50:08;;;;;;;5.33;1.83;;;;;;;;;;5006702;28;20748;-76
2020/12/29 07:52:35;;;;;;;3.63;1.17;;;;;;;;;;5012376;28;20363;-77
2020/12/29 07:55:05;;;;;;;2.37;0.60;;;;;;;;;;5007167;28;20332;-76
2020/12/29 07:57:31;;;;;;;2.07;0.60;;;;;;;;;;5010601;28;20275;-77
2020/12/29 08:00:05;;;;;;;5.47;0.90;;;;;;;;;;5013727;28;20343;-77
2020/12/29 08:02:31;;;;;;;;;;;;;;;;;;5010396;28;20307;-77
2020/12/29 08:05:00;;;;;;;3.57;0.70;;;;;;;;;;5014753;28;19945;-76
2020/12/29 08:07:26;;;;;;;2.20;0.87;;;;;;;;;;5006585;28;20058;-76
2020/12/29 08:09:52;;;;;;;5.33;1.03;;;;;;;;;;5003526;28;20277;-76
2020/12/29 08:12:19;;;;;;;1.67;0.60;;;;;;;;;;5000481;28;20851;-77
2020/12/29 08:14:45;;;;;;;3.20;0.97;;;;;;;;;;5001234;28;20273;-79
2020/12/29 08:17:11;;;;;;;3.27;0.83;;;;;;;;;;5005502;28;20691;-77
2020/12/29 08:19:38;;;;;;;5.43;1.30;;;;;;;;;;5038680;28;20296;-77
2020/12/29 08:22:08;;;;;;;1.63;0.80;;;;;;;;;;5039696;28;20261;-76
2020/12/29 08:24:34;;;;;;;4.83;1.27;;;;;;;;;;5042473;28;20707;-77
2020/12/29 08:27:01;;;;;;;3.17;0.90;;;;;;;;;;5009029;28;20322;-76
2020/12/29 08:29:28;;;;;;;2.77;1.00;;;;;;;;;;5001777;28;20300;-77
2020/12/29 08:32:08;;;;;;;2.63;0.90;;;;;;;;;;5008820;28;20876;-77
2020/12/29 08:34:34;;;;;;;2.27;0.77;;;;;;;;;;4990629;28;20261;-76
2020/12/29 08:37:01;;;;;;;3.57;0.50;;;;;;;;;;4990815;28;20262;-77
2020/12/29 08:39:37;;;;;;;3.20;0.87;;;;;;;;;;5003512;28;20743;-76
2020/12/29 08:42:03;;;;;;;4.57;1.03;;;;;;;;;;5009867;28;20269;-76
2020/12/29 08:44:31;;;;;;;3.93;1.00;;;;;;;;;;5009723;28;20770;-76
2020/12/29 08:46:58;;;;;;;4.90;1.00;;;;;;;;;;5007822;28;20261;-77
2020/12/29 08:49:28;;;;;;;3.73;1.10;;;;;;;;;;5007888;28;20257;-77
2020/12/29 08:51:55;;;;;;;2.57;0.70;;;;;;;;;;5008575;28;20292;-77
2020/12/29 08:54:21;;;;;;;3.57;1.63;;;;;;;;;;5026563;28;20810;-77
2020/12/29 08:56:47;;;;;;;3.40;1.13;;;;;;;;;;5024530;28;20291;-77
2020/12/29 08:59:21;;;;;;;6.40;3.20;;;;;;;;;;5008797;28;20328;-77
2020/12/29 09:01:49;;;;;;;9.13;3.20;;;;;;;;;;5016025;28;20264;-76
2020/12/29 09:04:21;;;;;;;1.63;0.70;;;;;;;;;;5044728;28;20034;-76
2020/12/29 09:06:57;;;;;;;4.33;1.40;;;;;;;;;;5025340;28;20273;-76
2020/12/29 09:09:23;;;;;;;2.97;0.70;;;;;;;;;;5003007;28;20284;-76
2020/12/29 09:11:49;;;;;;;5.00;1.17;;;;;;;;;;5009176;28;20271;-76
2020/12/29 09:14:23;;;;;;;2.20;0.90;;;;;;;;;;5008135;28;20447;-77
2020/12/29 09:17:03;;;;;;;4.63;1.60;;;;;;;;;;5007899;28;20288;-77
2020/12/29 09:19:29;;;;;;;2.30;0.80;;;;;;;;;;5009751;28;20026;-78
2020/12/29 09:22:05;;;;;;;2.57;1.50;;;;;;;;;;5007100;28;20115;-80
2020/12/29 09:24:33;;;;;;;2.57;0.80;;;;;;;;;;5010074;28;20477;-76
2020/12/29 09:26:59;;;;;;;0.80;0.30;;;;;;;;;;5007973;28;20030;-77
2020/12/29 09:29:26;;;;;;;2.63;0.47;;;;;;;;;;5025314;28;20460;-77
2020/12/29 09:31:53;;;;;;;2.80;0.47;;;;;;;;;;5032270;28;20278;-77
2020/12/29 09:34:19;;;;;;;1.90;0.60;;;;;;;;;;4996004;28;20621;-77
2020/12/29 09:36:45;;;;;;;2.47;0.50;;;;;;;;;;5028074;28;20037;-77
2020/12/29 09:39:11;;;;;;;2.90;0.77;;;;;;;;;;5019202;28;20034;-79
2020/12/29 09:41:37;;;;;;;2.00;0.50;;;;;;;;;;5007031;28;20056;-78
2020/12/29 09:44:04;;;;;;;0.50;0.30;;;;;;;;;;5008951;28;20093;-77
2020/12/29 09:46:37;;;;;;;1.80;0.90;;;;;;;;;;5011733;28;20034;-78
2020/12/29 09:49:03;;;;;;;2.08;0.47;;;;;;;;;;5010196;28;20038;-78
2020/12/29 09:51:29;;;;;;;2.73;0.60;;;;;;;;;;5010166;28;20032;-78
2020/12/29 09:53:55;;;;;;;1.90;0.60;;;;;;;;;;5022610;28;20033;-77
2020/12/29 09:56:22;;;;;;;1.43;0.70;;;;;;;;;;5001750;28;20350;-76
2020/12/29 09:58:48;;;;;;;5.30;1.33;;;;;;;;;;5005371;28;20800;-76
2020/12/29 10:01:15;;;;;;;4.97;1.40;;;;;;;;;;4990929;28;20262;-77
2020/12/29 10:03:41;;;;;;;1.60;0.60;;;;;;;;;;4998739;28;20253;-77
2020/12/29 10:06:07;;;;;;;3.30;0.70;;;;;;;;;;5009235;28;20273;-76
2020/12/29 10:08:33;;;;;;;2.90;0.87;;;;;;;;;;5017601;28;20276;-77
2020/12/29 10:10:59;;;;;;;2.80;0.70;;;;;;;;;;5027679;28;20692;-77
2020/12/29 10:13:25;;;;;;;6.77;1.67;;;;;;;;;;5014061;28;20268;-77
2020/12/29 10:15:52;;;;;;;3.37;1.00;;;;;;;;;;5030381;28;20279;-77
2020/12/29 10:18:18;;;;;;;1.47;0.57;;;;;;;;;;5012138;28;20288;-78
2020/12/29 10:20:44;;;;;;;0.63;0.43;;;;;;;;;;5016309;28;21232;-76
2020/12/29 10:23:11;;;;;;;1.47;0.47;;;;;;;;;;5021911;28;20293;-77
2020/12/29 10:25:37;;;;;;;8.03;4.27;;;;;;;;;;5038066;28;20899;-76
2020/12/29 10:28:03;;;;;;;0.40;0.30;;;;;;;;;;5017242;28;20268;-76
2020/12/29 10:30:29;;;;;;;0.43;0.30;;;;;;;;;;5030497;28;20365;-77
2020/12/29 10:32:55;;;;;;;4.23;1.73;;;;;;;;;;5012150;28;20276;-76
2020/12/29 10:35:21;;;;;;;1.57;0.67;;;;;;;;;;5025389;28;20755;-77
2020/12/29 10:37:47;;;;;;;2.97;1.00;;;;;;;;;;5011332;28;20261;-76
2020/12/29 10:40:13;;;;;;;2.67;1.20;;;;;;;;;;5027531;28;20276;-76
2020/12/29 10:42:40;;;;;;;1.03;0.70;;;;;;;;;;5020138;28;20674;-77
2020/12/29 10:45:06;;;;;;;2.20;1.07;;;;;;;;;;5022164;28;20314;-77
2020/12/29 10:47:32;;;;;;;1.83;0.53;;;;;;;;;;5018130;28;20280;-77
2020/12/29 10:49:58;;;;;;;1.83;0.70;;;;;;;;;;5011937;28;20265;-77
2020/12/29 10:52:24;;;;;;;5.47;2.27;;;;;;;;;;5013324;28;21019;-77
2020/12/29 10:54:50;;;;;;;0.93;0.60;;;;;;;;;;5013748;28;20272;-76
2020/12/29 10:57:17;;;;;;;1.90;0.80;;;;;;;;;;5006771;28;20298;-76
2020/12/29 10:59:43;;;;;;;3.80;1.30;;;;;;;;;;5018671;28;20735;-76
2020/12/29 11:02:09;;;;;;;5.27;1.77;;;;;;;;;;5015366;28;20328;-76
2020/12/29 11:04:35;;;;;;;1.90;0.73;;;;;;;;;;5010284;28;20048;-76
2020/12/29 11:07:01;;;;;;;1.43;0.77;;;;;;;;;;5026101;28;20401;-76
2020/12/29 11:09:27;;;;;;;3.63;1.47;;;;;;;;;;5024106;28;20030;-74
2020/12/29 11:11:53;;;;;;;4.13;1.47;;;;;;;;;;5011617;28;20025;-75
2020/12/29 11:14:19;;;;;;;5.77;2.53;;;;;;;;;;5026216;28;20061;-75
2020/12/29 11:16:49;;;;;;;2.77;1.40;;;;;;;;;;5025041;28;20107;-75
2020/12/29 11:19:16;;;;;;;3.83;1.00;;;;;;;;;;5021783;28;20045;-76
2020/12/29 11:21:42;;;;;;;0.90;0.60;;;;;;;;;;5014307;28;20434;-76
2020/12/29 11:24:08;;;;;;;1.03;0.40;;;;;;;;;;5013016;28;20037;-76
2020/12/29 11:26:34;;;;;;;3.70;1.30;;;;;;;;;;5017648;28;20659;-76
2020/12/29 11:29:00;;;;;;;2.67;1.30;;;;;;;;;;5010754;28;20022;-76
2020/12/29 11:31:27;;;;;;;2.93;1.03;;;;;;;;;;5020828;28;20052;-76
2020/12/29 11:33:53;;;;;;;1.50;0.73;;;;;;;;;;5014444;28;20030;-76
2020/12/29 11:36:21;;;;;;;1.07;0.50;;;;;;;;;;5029583;28;20131;-75
2020/12/29 11:38:47;;;;;;;0.97;0.57;;;;;;;;;;5023946;28;20030;-75
2020/12/29 11:41:14;;;;;;;2.13;1.07;;;;;;;;;;5010963;28;20022;-76
2020/12/29 11:43:40;;;;;;;1.10;0.50;;;;;;;;;;5008174;28;20074;-76
2020/12/29 11:46:07;;;;;;;1.27;0.50;;;;;;;;;;5015310;28;20022;-75
2020/12/29 11:48:33;;;;;;;0.97;0.47;;;;;;;;;;5027689;28;20163;-76
2020/12/29 11:50:59;;;;;;;4.30;0.60;;;;;;;;;;5021030;28;20048;-75
2020/12/29 11:53:25;;;;;;;2.90;0.43;;;;;;;;;;5030048;28;20041;-76
2020/12/29 11:55:51;;;;;;;3.53;1.60;;;;;;;;;;5048071;28;20052;-76
2020/12/29 11:58:18;;;;;;;1.67;0.60;;;;;;;;;;5025980;28;20030;-77
2020/12/29 12:00:45;;;;;;;1.63;0.80;;;;;;;;;;5011031;28;20030;-76
2020/12/29 12:03:11;;;;;;;6.80;2.93;;;;;;;;;;5010504;28;20120;-76
2020/12/29 12:05:37;;;;;;;4.77;1.63;;;;;;;;;;5025817;28;20049;-77
2020/12/29 12:08:04;;;;;;;2.60;0.93;;;;;;;;;;5022269;28;20097;-76
2020/12/29 12:10:30;;;;;;;2.00;0.60;;;;;;;;;;5021155;28;20101;-75
2020/12/29 12:12:56;;;;;;;2.53;0.90;;;;;;;;;;5019961;28;20688;-76
2020/12/29 12:15:22;;;;;;;2.57;0.80;;;;;;;;;;5023660;28;20504;-75
2020/12/29 12:17:48;;;;;;;3.30;1.00;;;;;;;;;;5003618;28;20022;-74
2020/12/29 12:20:14;;;;;;;7.87;1.80;;;;;;;;;;5014561;28;20052;-77
2020/12/29 12:22:40;;;;;;;3.60;0.67;;;;;;;;;;5028180;28;20021;-76
2020/12/29 12:25:06;;;;;;;0.80;0.40;;;;;;;;;;5012142;28;20469;-77
2020/12/29 12:27:32;;;;;;;1.47;0.60;;;;;;;;;;5014670;28;20033;-77
2020/12/29 12:30:00;;;;;;;3.33;0.87;;;;;;;;;;5015429;28;20592;-76
2020/12/29 12:32:27;;;;;;;2.80;0.93;;;;;;;;;;5015085;28;20041;-75
2020/12/29 12:34:53;;;;;;;4.00;1.37;;;;;;;;;;5012126;28;20041;-75
2020/12/29 12:37:19;;;;;;;1.93;0.60;;;;;;;;;;5019667;28;20400;-76
2020/12/29 12:39:46;;;;;;;2.77;1.20;;;;;;;;;;5001439;28;20125;-77
2020/12/29 12:42:13;;;;;;;8.90;3.50;;;;;;;;;;5014105;28;20033;-76
2020/12/29 12:44:41;;;;;;;3.77;1.00;;;;;;;;;;5040244;28;20018;-75
2020/12/29 12:47:08;;;;;;;1.43;0.70;;;;;;;;;;5009616;28;20037;-76
2020/12/29 12:49:34;;;;;;;2.07;0.63;;;;;;;;;;4992016;28;20656;-75
2020/12/29 12:52:00;;;;;;;3.47;0.97;;;;;;;;;;4992715;28;20037;-75
2020/12/29 12:54:26;;;;;;;0.70;0.50;;;;;;;;;;5001637;28;20056;-76
2020/12/29 12:56:54;;;;;;;1.80;0.90;;;;;;;;;;5010799;28;20033;-75
2020/12/29 12:59:20;;;;;;;1.00;0.50;;;;;;;;;;5012826;28;20060;-76
2020/12/29 13:01:50;;;;;;;1.45;0.70;;;;;;;;;;5011312;28;20511;-76
2020/12/29 13:04:16;;;;;;;4.03;1.10;;;;;;;;;;5008278;28;20072;-76
2020/12/29 13:06:42;;;;;;;7.93;4.22;;;;;;;;;;5021957;28;20560;-76
2020/12/29 13:09:08;;;;;;;3.45;0.70;;;;;;;;;;5031591;28;20036;-77
2020/12/29 13:11:34;;;;;;;1.60;0.40;;;;;;;;;;5008665;28;20037;-75
2020/12/29 13:14:00;;;;;;;9.23;5.30;;;;;;;;;;5010499;28;20034;-75
2020/12/29 13:16:27;;;;;;;2.20;1.10;;;;;;;;;;5007585;28;20025;-75
2020/12/29 13:18:53;;;;;;;3.93;0.70;;;;;;;;;;5022422;28;20029;-75
2020/12/29 13:21:19;;;;;;;2.60;0.60;;;;;;;;;;5013153;28;20096;-76
2020/12/29 13:23:46;;;;;;;2.20;0.80;;;;;;;;;;5010208;28;20030;-74
2020/12/29 13:26:15;;;;;;;3.40;1.20;;;;;;;;;;5013183;28;20050;-75
2020/12/29 13:28:42;;;;;;;4.60;2.10;;;;;;;;;;5013809;28;20100;-75
2020/12/29 13:31:08;;;;;;;5.77;2.60;;;;;;;;;;5006984;28;20121;-75
2020/12/29 13:33:38;;;;;;;2.33;1.20;;;;;;;;;;5015818;28;20029;-76
2020/12/29 13:36:05;;;;;;;5.63;1.40;;;;;;;;;;5021106;28;20036;-75
2020/12/29 13:38:32;;;;;;;3.57;1.47;;;;;;;;;;5024116;28;20087;-75
2020/12/29 13:41:00;;;;;;;4.10;1.63;;;;;;;;;;5019989;28;20117;-75
2020/12/29 13:43:26;;;;;;;3.10;1.40;;;;;;;;;;4997740;28;20034;-75
2020/12/29 13:45:53;;;;;;;2.97;1.07;;;;;;;;;;5011521;28;20356;-75
2020/12/29 13:48:21;;;;;;;2.73;1.90;;;;;;;;;;5041076;28;20299;-75
2020/12/29 13:50:47;;;;;;;3.40;1.60;;;;;;;;;;5011691;28;20894;-75
2020/12/29 13:53:13;;;;;;;3.60;1.90;;;;;;;;;;4999786;28;20042;-75
2020/12/29 13:55:39;;;;;;;3.77;1.20;;;;;;;;;;4996412;28;20297;-75
2020/12/29 13:58:05;;;;;;;5.30;2.40;;;;;;;;;;5001584;28;20124;-75
2020/12/29 14:00:31;;;;;;;5.30;1.47;;;;;;;;;;5017902;28;20022;-77
2020/12/29 14:02:57;;;;;;;6.90;3.37;;;;;;;;;;5005885;28;20034;-76
2020/12/29 14:05:23;;;;;;;3.23;1.10;;;;;;;;;;5021496;28;20129;-76
2020/12/29 14:07:49;;;;;;;4.13;2.03;;;;;;;;;;5016680;28;20544;-76
2020/12/29 14:10:16;;;;;;;6.47;1.80;;;;;;;;;;5020269;28;20022;-75
2020/12/29 14:12:42;;;;;;;6.23;2.57;;;;;;;;;;5008066;28;20026;-76
2020/12/29 14:15:08;;;;;;;3.73;1.60;;;;;;;;;;5008290;28;20022;-77
2020/12/29 14:17:34;;;;;;;2.90;1.00;;;;;;;;;;5008225;28;20490;-76
2020/12/29 14:20:00;;;;;;;2.93;0.60;;;;;;;;;;5009633;28;20641;-75
2020/12/29 14:22:26;;;;;;;2.80;0.90;;;;;;;;;;5028205;28;20025;-76
2020/12/29 14:24:53;;;;;;;11.77;5.93;;;;;;;;;;5017555;28;20022;-76
2020/12/29 14:27:19;;;;;;;18.50;8.13;;;;;;;;;;5020371;28;20068;-76
2020/12/29 14:29:46;;;;;;;5.80;3.00;;;;;;;;;;5013341;28;20021;-75
2020/12/29 14:32:12;;;;;;;3.47;1.70;;;;;;;;;;5016630;28;20029;-74
2020/12/29 14:34:38;;;;;;;6.83;2.90;;;;;;;;;;5022916;28;20026;-75
2020/12/29 14:37:04;;;;;;;11.50;5.73;;;;;;;;;;5018008;28;20025;-77
2020/12/29 14:39:31;;;;;;;8.53;4.73;;;;;;;;;;5007271;28;20083;-75
2020/12/29 14:41:57;;;;;;;11.23;3.97;;;;;;;;;;5018960;28;20029;-74